createdAt,value
2018-10-21T00:00:32.620Z,20.93
2018-10-21T00:02:59.997Z,18.20
2018-10-21T00:05:27.414Z,20.23
2018-10-21T00:07:54.733Z,18.37
2018-10-21T00:10:22.111Z,18.77
2018-10-21T00:12:49.506Z,19.07
2018-10-21T00:15:16.938Z,19.77
2018-10-21T00:17:44.220Z,18.63
2018-10-21T00:20:11.546Z,17.53
2018-10-21T00:22:38.848Z,19.20
2018-10-21T00:25:06.437Z,18.20
2018-10-21T00:27:34.699Z,19.53
2018-10-21T00:30:02.104Z,18.90
2018-10-21T00:32:39.746Z,17.30
2018-10-21T00:35:07.797Z,17.90
2018-10-21T00:37:35.247Z,17.70
2018-10-21T00:40:02.602Z,17.90
2018-10-21T00:42:31.025Z,18.77
2018-10-21T00:44:59.429Z,18.57
2018-10-21T00:47:27.261Z,17.43
2018-10-21T00:49:54.750Z,18.07
2018-10-21T00:52:22.173Z,17.13
2018-10-21T00:54:49.537Z,18.10
2018-10-21T00:57:17.041Z,16.67
2018-10-21T00:59:44.353Z,17.93
2018-10-21T01:02:11.823Z,18.23
2018-10-21T01:04:39.206Z,18.40
2018-10-21T01:07:06.660Z,18.77
2018-10-21T01:09:34.039Z,17.83
2018-10-21T01:12:01.397Z,18.47
2018-10-21T01:14:28.807Z,18.10
2018-10-21T01:16:56.119Z,18.00
2018-10-21T01:19:23.429Z,18.23
2018-10-21T01:21:50.877Z,17.97
2018-10-21T01:24:18.238Z,18.60
2018-10-21T01:26:45.680Z,18.70
2018-10-21T01:29:13.093Z,17.73
2018-10-21T01:31:40.455Z,19.43
2018-10-21T01:34:07.859Z,17.93
2018-10-21T01:36:35.265Z,16.80
2018-10-21T01:39:02.601Z,17.47
2018-10-21T01:41:30.004Z,18.30
2018-10-21T01:43:57.307Z,18.97
2018-10-21T01:46:24.761Z,19.20
2018-10-21T01:48:52.207Z,19.10
2018-10-21T01:51:19.748Z,18.50
2018-10-21T01:53:49.099Z,18.53
2018-10-21T01:56:16.446Z,19.73
2018-10-21T01:58:43.808Z,18.50
2018-10-21T02:01:11.156Z,19.63
2018-10-21T02:03:38.506Z,19.00
2018-10-21T02:06:05.963Z,17.87
2018-10-21T02:08:33.387Z,19.47
2018-10-21T02:11:00.996Z,18.57
2018-10-21T02:13:28.334Z,17.83
2018-10-21T02:15:55.795Z,18.87
2018-10-21T02:18:23.167Z,19.53
2018-10-21T02:20:50.563Z,19.20
2018-10-21T02:23:17.953Z,17.67
2018-10-21T02:25:45.317Z,20.27
2018-10-21T02:28:12.675Z,18.77
2018-10-21T02:30:40.093Z,17.80
2018-10-21T02:33:07.506Z,19.00
2018-10-21T02:35:34.863Z,18.63
2018-10-21T02:38:02.185Z,17.70
2018-10-21T02:41:37.228Z,18.67
2018-10-21T02:44:05.491Z,16.73
2018-10-21T02:46:33.411Z,18.17
2018-10-21T02:49:01.595Z,18.03
2018-10-21T02:51:29.185Z,17.07
2018-10-21T02:53:56.650Z,17.53
2018-10-21T02:56:24.019Z,16.50
2018-10-21T02:58:51.376Z,16.43
2018-10-21T03:01:18.754Z,17.83
2018-10-21T03:03:47.135Z,18.60
2018-10-21T03:06:14.510Z,17.13
2018-10-21T03:08:41.806Z,17.47
2018-10-21T03:11:09.209Z,17.27
2018-10-21T03:13:36.679Z,18.33
2018-10-21T03:16:04.487Z,18.50
2018-10-21T03:18:31.940Z,17.53
2018-10-21T03:20:59.641Z,19.10
2018-10-21T03:23:26.980Z,17.90
2018-10-21T03:25:54.400Z,16.50
2018-10-21T03:28:21.727Z,16.53
2018-10-21T03:30:49.158Z,17.30
2018-10-21T03:33:16.661Z,16.77
2018-10-21T03:35:43.854Z,17.77
2018-10-21T03:38:11.281Z,16.53
2018-10-21T03:40:38.613Z,16.13
2018-10-21T03:43:06.069Z,17.10
2018-10-21T03:45:33.605Z,17.87
2018-10-21T03:48:01.053Z,17.20
2018-10-21T03:50:28.728Z,15.87
2018-10-21T03:52:56.297Z,18.00
2018-10-21T03:55:23.751Z,17.13
2018-10-21T03:57:51.188Z,16.03
2018-10-21T04:00:18.658Z,16.60
2018-10-21T04:02:48.151Z,15.90
2018-10-21T04:05:15.556Z,17.57
2018-10-21T04:07:43.091Z,16.40
2018-10-21T04:10:10.488Z,16.00
2018-10-21T04:12:37.802Z,15.50
2018-10-21T04:15:05.640Z,15.83
2018-10-21T04:17:33.069Z,16.23
2018-10-21T04:20:00.482Z,15.90
2018-10-21T04:22:27.894Z,16.37
2018-10-21T04:24:55.238Z,14.90
2018-10-21T04:27:22.568Z,15.83
2018-10-21T04:29:50.072Z,15.73
2018-10-21T04:32:17.414Z,14.80
2018-10-21T04:34:44.803Z,16.20
2018-10-21T04:37:17.727Z,15.37
2018-10-21T04:39:50.530Z,17.43
2018-10-21T04:42:17.810Z,16.10
2018-10-21T04:44:45.143Z,14.37
2018-10-21T04:47:14.644Z,15.90
2018-10-21T04:49:41.971Z,15.50
2018-10-21T04:52:09.376Z,15.57
2018-10-21T04:54:36.942Z,15.57
2018-10-21T04:57:06.167Z,15.23
2018-10-21T04:59:33.526Z,16.47
2018-10-21T05:02:01.174Z,14.70
2018-10-21T05:04:29.608Z,15.70
2018-10-21T05:06:57.053Z,15.40
2018-10-21T05:09:25.186Z,15.80
2018-10-21T05:11:52.710Z,15.73
2018-10-21T05:14:20.066Z,15.40
2018-10-21T05:16:47.419Z,15.93
2018-10-21T05:19:14.775Z,15.60
2018-10-21T05:21:42.104Z,15.47
2018-10-21T05:24:09.453Z,15.93
2018-10-21T05:26:37.213Z,15.47
2018-10-21T05:29:04.584Z,15.70
2018-10-21T05:31:32.036Z,18.30
2018-10-21T05:33:59.622Z,15.23
2018-10-21T05:36:27.125Z,15.77
2018-10-21T05:38:54.437Z,16.37
2018-10-21T05:41:21.902Z,15.80
2018-10-21T05:43:49.232Z,14.70
2018-10-21T05:46:51.842Z,15.77
2018-10-21T05:49:19.270Z,16.20
2018-10-21T05:51:47.920Z,16.27
2018-10-21T05:54:19.562Z,16.10
2018-10-21T05:56:48.153Z,17.20
2018-10-21T05:59:16.113Z,16.27
2018-10-21T06:01:44.099Z,16.63
2018-10-21T06:04:13.257Z,16.30
2018-10-21T06:06:40.619Z,16.47
2018-10-21T06:09:09.057Z,15.23
2018-10-21T06:11:36.519Z,16.30
2018-10-21T06:14:04.226Z,16.47
2018-10-21T06:16:36.205Z,15.47
2018-10-21T06:19:07.069Z,16.17
2018-10-21T06:21:34.406Z,16.00
2018-10-21T06:24:02.811Z,16.10
2018-10-21T06:26:30.213Z,15.63
2018-10-21T06:28:57.511Z,16.00
2018-10-21T06:31:24.979Z,15.80
2018-10-21T06:33:52.376Z,15.47
2018-10-21T06:36:19.738Z,15.70
2018-10-21T06:38:47.112Z,15.07
2018-10-21T06:41:14.489Z,14.70
2018-10-21T06:43:42.832Z,14.73
2018-10-21T06:46:10.393Z,16.60
2018-10-21T06:48:38.013Z,15.93
2018-10-21T06:51:05.325Z,16.20
2018-10-21T06:53:33.973Z,16.70
2018-10-21T06:56:01.797Z,16.30
2018-10-21T06:58:29.122Z,15.90
2018-10-21T07:00:56.482Z,17.40
2018-10-21T07:03:25.948Z,16.73
2018-10-21T07:06:25.821Z,14.90
2018-10-21T07:08:54.259Z,16.07
2018-10-21T07:11:21.696Z,15.10
2018-10-21T07:13:49.058Z,17.40
2018-10-21T07:16:16.530Z,15.50
2018-10-21T07:18:44.750Z,15.13
2018-10-21T07:21:12.158Z,13.90
2018-10-21T07:23:39.763Z,14.90
2018-10-21T07:26:07.176Z,16.20
2018-10-21T07:28:34.569Z,15.37
2018-10-21T07:31:01.993Z,14.93
2018-10-21T07:33:29.337Z,15.50
2018-10-21T07:35:56.905Z,14.30
2018-10-21T07:38:24.234Z,14.20
2018-10-21T07:40:51.538Z,15.63
2018-10-21T07:43:18.947Z,14.47
2018-10-21T07:45:46.321Z,14.00
2018-10-21T07:48:14.006Z,15.07
2018-10-21T07:50:43.585Z,15.33
2018-10-21T07:53:10.976Z,15.50
2018-10-21T07:55:38.379Z,15.37
2018-10-21T07:58:05.777Z,14.20
2018-10-21T08:00:33.373Z,15.30
2018-10-21T08:03:00.746Z,14.83
2018-10-21T08:05:33.770Z,14.80
2018-10-21T08:08:06.671Z,15.03
2018-10-21T08:10:34.016Z,14.67
2018-10-21T08:13:01.402Z,14.67
2018-10-21T08:15:28.741Z,14.60
2018-10-21T08:17:56.158Z,14.73
2018-10-21T08:20:23.494Z,15.63
2018-10-21T08:22:50.882Z,14.70
2018-10-21T08:25:18.224Z,15.23
2018-10-21T08:27:45.590Z,15.70
2018-10-21T08:30:13.071Z,15.30
2018-10-21T08:32:40.388Z,14.17
2018-10-21T08:35:07.813Z,16.20
2018-10-21T08:37:35.170Z,15.20
2018-10-21T08:40:02.543Z,17.00
2018-10-21T08:42:29.948Z,16.03
2018-10-21T08:44:57.286Z,16.70
2018-10-21T08:47:24.687Z,15.43
2018-10-21T08:49:52.407Z,14.70
2018-10-21T08:52:19.838Z,15.57
2018-10-21T08:54:47.214Z,15.10
2018-10-21T08:57:15.393Z,14.43
2018-10-21T08:59:42.990Z,16.43
2018-10-21T09:02:10.480Z,14.57
2018-10-21T09:04:37.753Z,16.10
2018-10-21T09:07:05.192Z,15.97
2018-10-21T09:09:32.479Z,16.20
2018-10-21T09:11:59.870Z,16.23
2018-10-21T09:14:27.169Z,16.20
2018-10-21T09:16:54.526Z,15.63
2018-10-21T09:19:21.999Z,15.43
2018-10-21T09:21:49.427Z,15.03
2018-10-21T09:24:16.951Z,15.60
2018-10-21T09:26:44.367Z,14.97
2018-10-21T09:29:11.714Z,15.53
2018-10-21T09:31:39.074Z,15.50
2018-10-21T09:34:06.445Z,16.30
2018-10-21T09:36:33.717Z,15.80
2018-10-21T09:39:01.063Z,15.53
2018-10-21T09:41:28.410Z,15.77
2018-10-21T09:43:55.817Z,16.93
2018-10-21T09:46:23.176Z,14.40
2018-10-21T09:48:50.620Z,15.10
2018-10-21T09:51:18.145Z,14.80
2018-10-21T09:53:45.507Z,14.63
2018-10-21T09:56:12.831Z,15.27
2018-10-21T09:58:40.357Z,14.47
2018-10-21T10:01:13.068Z,15.53
2018-10-21T10:03:40.370Z,14.37
2018-10-21T10:06:07.738Z,14.67
2018-10-21T10:08:35.073Z,15.20
2018-10-21T10:11:02.443Z,13.60
2018-10-21T10:13:29.904Z,14.67
2018-10-21T10:15:57.309Z,14.13
2018-10-21T10:18:24.779Z,13.47
2018-10-21T10:20:52.157Z,13.10
2018-10-21T10:23:19.538Z,14.20
2018-10-21T10:25:47.154Z,14.20
2018-10-21T10:28:14.670Z,13.23
2018-10-21T10:30:42.019Z,13.10
2018-10-21T10:33:09.354Z,14.10
2018-10-21T10:35:36.710Z,12.60
2018-10-21T10:38:04.219Z,12.77
2018-10-21T10:40:31.572Z,12.87
2018-10-21T10:42:58.913Z,11.80
2018-10-21T10:45:26.252Z,12.30
2018-10-21T10:47:53.759Z,12.33
2018-10-21T10:50:21.068Z,12.53
2018-10-21T10:52:48.485Z,11.80
2018-10-21T10:55:16.004Z,12.17
2018-10-21T10:57:43.224Z,11.57
2018-10-21T11:00:11.726Z,9.87
2018-10-21T11:02:38.853Z,11.57
2018-10-21T11:05:06.390Z,10.70
2018-10-21T11:07:33.739Z,11.00
2018-10-21T11:10:01.120Z,10.47
2018-10-21T11:12:28.380Z,9.63
2018-10-21T11:14:55.676Z,11.10
2018-10-21T11:17:23.099Z,10.37
2018-10-21T11:19:50.402Z,9.93
2018-10-21T11:22:17.815Z,9.20
2018-10-21T11:24:45.090Z,9.60
2018-10-21T11:27:12.526Z,9.80
2018-10-21T11:29:39.855Z,9.03
2018-10-21T11:32:07.397Z,8.83
2018-10-21T11:34:34.897Z,9.90
2018-10-21T11:37:02.354Z,10.27
2018-10-21T11:39:29.681Z,9.83
2018-10-21T11:41:57.330Z,9.40
2018-10-21T11:44:24.828Z,10.17
2018-10-21T11:46:52.352Z,9.00
2018-10-21T11:49:19.782Z,10.13
2018-10-21T11:51:47.212Z,9.37
2018-10-21T11:54:14.730Z,9.07
2018-10-21T11:56:43.003Z,7.20
2018-10-21T11:59:10.945Z,7.60
2018-10-21T12:01:38.425Z,7.60
2018-10-21T12:04:11.836Z,6.67
2018-10-21T12:06:39.339Z,5.67
2018-10-21T12:09:12.563Z,5.40
2018-10-21T12:11:40.291Z,5.33
2018-10-21T12:14:08.742Z,5.63
2018-10-21T12:16:43.203Z,4.90
2018-10-21T12:19:10.782Z,5.70
2018-10-21T12:21:38.412Z,4.93
2018-10-21T12:24:06.046Z,6.27
2018-10-21T12:26:33.593Z,6.40
2018-10-21T12:29:02.070Z,6.40
2018-10-21T12:31:29.606Z,6.93
2018-10-21T12:33:57.126Z,5.87
2018-10-21T12:36:24.774Z,6.60
2018-10-21T12:38:52.565Z,6.70
2018-10-21T12:41:20.391Z,7.60
2018-10-21T12:43:48.099Z,7.73
2018-10-21T12:46:15.755Z,7.33
2018-10-21T12:48:43.334Z,7.13
2018-10-21T12:51:10.926Z,6.60
2018-10-21T12:53:38.496Z,6.30
2018-10-21T12:56:08.369Z,5.70
2018-10-21T12:58:36.267Z,5.70
2018-10-21T13:01:03.912Z,6.70
2018-10-21T13:03:31.518Z,6.90
2018-10-21T13:05:59.101Z,6.77
2018-10-21T13:08:26.770Z,7.07
2018-10-21T13:10:54.426Z,7.40
2018-10-21T13:13:22.170Z,7.30
2018-10-21T13:15:49.873Z,7.57
2018-10-21T13:18:17.516Z,6.13
2018-10-21T13:20:45.137Z,6.23
2018-10-21T13:23:13.298Z,6.33
2018-10-21T13:25:40.866Z,5.60
2018-10-21T13:28:08.562Z,6.33
2018-10-21T13:30:36.089Z,6.30
2018-10-21T13:33:03.794Z,5.53
2018-10-21T13:35:31.573Z,4.83
2018-10-21T13:37:59.194Z,5.63
2018-10-21T13:40:26.835Z,5.00
2018-10-21T13:42:54.556Z,5.27
2018-10-21T13:45:22.180Z,4.67
2018-10-21T13:47:49.784Z,5.27
2018-10-21T13:50:17.501Z,5.43
2018-10-21T13:52:45.176Z,4.80
2018-10-21T13:55:13.118Z,4.90
2018-10-21T13:57:40.797Z,4.70
2018-10-21T14:00:08.886Z,4.00
2018-10-21T14:02:36.645Z,5.10
2018-10-21T14:05:04.373Z,4.00
2018-10-21T14:07:31.799Z,5.03
2018-10-21T14:09:59.340Z,5.00
2018-10-21T14:12:26.798Z,4.60
2018-10-21T14:14:54.637Z,4.70
2018-10-21T14:17:22.297Z,4.77
2018-10-21T14:19:50.238Z,4.47
2018-10-21T14:22:17.780Z,4.07
2018-10-21T14:24:45.361Z,4.13
2018-10-21T14:27:12.765Z,3.73
2018-10-21T14:29:40.251Z,4.67
2018-10-21T14:32:07.817Z,4.40
2018-10-21T14:34:35.370Z,4.70
2018-10-21T14:37:03.085Z,3.83
2018-10-21T14:39:30.617Z,3.70
2018-10-21T14:41:58.132Z,4.00
2018-10-21T14:44:25.652Z,4.23
2018-10-21T14:46:53.038Z,4.47
2018-10-21T14:49:20.610Z,4.23
2018-10-21T14:51:48.228Z,4.97
2018-10-21T14:54:17.467Z,4.03
2018-10-21T14:56:44.833Z,4.30
2018-10-21T14:59:12.287Z,4.10
2018-10-21T15:01:55.811Z,4.03
2018-10-21T15:04:23.365Z,3.73
2018-10-21T15:06:50.974Z,3.40
2018-10-21T15:09:18.662Z,3.77
2018-10-21T15:11:46.171Z,3.10
2018-10-21T15:14:13.803Z,3.83
2018-10-21T15:16:41.787Z,3.57
2018-10-21T15:19:09.241Z,3.70
2018-10-21T15:21:37.101Z,3.93
2018-10-21T15:24:04.619Z,3.07
2018-10-21T15:26:32.483Z,3.00
2018-10-21T15:28:59.943Z,3.93
2018-10-21T15:31:27.467Z,2.87
2018-10-21T15:33:54.970Z,3.23
2018-10-21T15:36:23.477Z,3.43
2018-10-21T15:38:50.946Z,3.00
2018-10-21T15:41:18.525Z,3.23
2018-10-21T15:43:46.443Z,3.10
2018-10-21T15:46:14.067Z,3.30
2018-10-21T15:48:41.681Z,3.10
2018-10-21T15:51:09.145Z,3.27
2018-10-21T15:53:36.523Z,3.30
2018-10-21T15:56:03.990Z,2.73
2018-10-21T15:58:31.538Z,2.97
2018-10-21T16:00:59.163Z,2.30
2018-10-21T16:03:26.697Z,2.67
2018-10-21T16:05:54.493Z,3.20
2018-10-21T16:08:22.013Z,2.80
2018-10-21T16:10:49.506Z,2.73
2018-10-21T16:13:16.958Z,2.90
2018-10-21T16:15:44.456Z,2.40
2018-10-21T16:18:11.789Z,3.13
2018-10-21T16:20:39.242Z,3.33
2018-10-21T16:23:06.716Z,2.97
2018-10-21T16:25:34.255Z,2.57
2018-10-21T16:28:01.648Z,3.03
2018-10-21T16:30:29.099Z,3.03
2018-10-21T16:32:56.680Z,3.43
2018-10-21T16:35:23.989Z,3.20
2018-10-21T16:37:51.597Z,2.67
2018-10-21T16:40:19.007Z,3.13
2018-10-21T16:42:47.284Z,3.43
2018-10-21T16:45:15.334Z,3.37
2018-10-21T16:47:42.799Z,2.93
2018-10-21T16:50:11.574Z,3.23
2018-10-21T16:52:38.966Z,2.57
2018-10-21T16:55:07.342Z,2.93
2018-10-21T16:57:34.885Z,3.00
2018-10-21T17:00:02.457Z,2.83
2018-10-21T17:02:29.765Z,3.00
2018-10-21T17:04:57.255Z,3.40
2018-10-21T17:07:24.658Z,3.50
2018-10-21T17:09:52.689Z,2.73
2018-10-21T17:12:19.804Z,2.33
2018-10-21T17:14:48.533Z,3.10
2018-10-21T17:17:16.525Z,2.70
2018-10-21T17:19:43.921Z,2.70
2018-10-21T17:22:11.520Z,2.47
2018-10-21T17:24:38.856Z,2.97
2018-10-21T17:27:06.409Z,2.40
2018-10-21T17:29:34.181Z,3.07
2018-10-21T17:32:01.933Z,2.83
2018-10-21T17:34:29.532Z,2.90
2018-10-21T17:36:57.443Z,2.50
2018-10-21T17:39:25.219Z,3.00
2018-10-21T17:41:53.133Z,3.37
2018-10-21T17:44:21.831Z,2.80
2018-10-21T17:46:51.472Z,3.17
2018-10-21T17:52:10.351Z,3.00
2018-10-21T17:54:37.955Z,3.00
2018-10-21T17:57:53.320Z,3.10
2018-10-21T18:00:20.646Z,3.47
2018-10-21T18:02:47.992Z,3.27
2018-10-21T18:05:15.377Z,3.67
2018-10-21T18:07:42.987Z,4.23
2018-10-21T18:10:10.684Z,3.90
2018-10-21T18:12:38.087Z,3.83
2018-10-21T18:15:06.155Z,3.20
2018-10-21T18:17:33.493Z,4.20
2018-10-21T18:22:33.609Z,3.57
2018-10-21T18:25:01.811Z,4.30
2018-10-21T18:27:29.156Z,4.83
2018-10-21T18:29:56.733Z,3.80
2018-10-21T18:32:24.081Z,4.40
2018-10-21T18:34:51.365Z,3.90
2018-10-21T18:37:18.760Z,5.00
2018-10-21T18:39:46.227Z,5.30
2018-10-21T18:42:13.710Z,4.50
2018-10-21T18:44:41.295Z,4.90
2018-10-21T18:47:09.330Z,4.50
2018-10-21T18:49:36.898Z,4.40
2018-10-21T18:52:04.479Z,4.70
2018-10-21T18:54:32.104Z,4.00
2018-10-21T18:56:59.423Z,4.33
2018-10-21T18:59:26.815Z,4.47
2018-10-21T19:01:58.290Z,4.83
2018-10-21T19:04:25.717Z,4.20
2018-10-21T19:06:53.082Z,4.50
2018-10-21T19:09:20.410Z,4.73
2018-10-21T19:11:47.699Z,4.63
2018-10-21T19:14:15.094Z,4.70
2018-10-21T19:16:42.448Z,5.10
2018-10-21T19:19:09.939Z,5.40
2018-10-21T19:21:37.214Z,5.03
2018-10-21T19:24:05.033Z,5.30
2018-10-21T19:26:32.333Z,4.80
2018-10-21T19:28:59.801Z,4.83
2018-10-21T19:31:27.175Z,5.50
2018-10-21T19:33:54.592Z,5.50
2018-10-21T19:36:22.064Z,4.40
2018-10-21T19:38:49.511Z,5.03
2018-10-21T19:41:16.931Z,5.07
2018-10-21T19:43:44.366Z,4.90
2018-10-21T19:46:11.857Z,5.60
2018-10-21T19:48:40.257Z,5.90
2018-10-21T19:51:07.753Z,5.40
2018-10-21T19:56:19.743Z,5.37
2018-10-21T19:58:47.107Z,6.27
2018-10-21T20:01:14.756Z,12.40
2018-10-21T20:03:42.060Z,15.07
2018-10-21T20:06:09.423Z,14.23
2018-10-21T20:08:37.124Z,11.53
2018-10-21T20:11:04.604Z,8.17
2018-10-21T20:13:31.990Z,7.90
2018-10-21T20:15:59.465Z,5.97
2018-10-21T20:18:26.782Z,5.43
2018-10-21T20:20:54.235Z,5.27
2018-10-21T20:23:21.581Z,5.13
2018-10-21T20:25:48.964Z,5.07
2018-10-21T20:28:16.365Z,5.57
2018-10-21T20:30:43.595Z,5.27
2018-10-21T20:33:11.036Z,5.53
2018-10-21T20:35:38.340Z,5.17
2018-10-21T20:38:05.707Z,5.57
2018-10-21T20:40:33.018Z,4.87
2018-10-21T20:43:02.497Z,4.97
2018-10-21T20:45:29.840Z,5.40
2018-10-21T20:47:57.215Z,5.67
2018-10-21T20:50:24.835Z,5.50
2018-10-21T20:52:52.185Z,5.30
2018-10-21T20:55:19.535Z,5.57
2018-10-21T20:57:46.934Z,5.00
2018-10-21T21:00:14.282Z,5.23
2018-10-21T21:02:41.815Z,5.30
2018-10-21T21:05:09.680Z,5.47
2018-10-21T21:07:37.357Z,4.83
2018-10-21T21:10:06.855Z,4.93
2018-10-21T21:12:34.192Z,5.00
2018-10-21T21:15:01.830Z,5.47
2018-10-21T21:17:29.224Z,5.43
2018-10-21T21:19:56.527Z,5.23
2018-10-21T21:22:23.895Z,5.13
2018-10-21T21:24:51.272Z,5.37
2018-10-21T21:27:18.700Z,5.43
2018-10-21T21:29:46.317Z,5.70
2018-10-21T21:32:13.664Z,5.20
2018-10-21T21:34:41.056Z,5.37
2018-10-21T21:37:08.471Z,5.80
2018-10-21T21:39:35.857Z,6.57
2018-10-21T21:42:03.245Z,5.17
2018-10-21T21:44:30.656Z,5.37
2018-10-21T21:46:58.123Z,5.60
2018-10-21T21:49:25.450Z,5.63
2018-10-21T21:51:53.964Z,5.03
2018-10-21T21:54:21.335Z,4.57
2018-10-21T21:56:48.685Z,5.40
2018-10-21T21:59:16.047Z,4.60
2018-10-21T22:01:43.598Z,4.40
2018-10-21T22:04:10.954Z,4.60
2018-10-21T22:06:38.418Z,4.93
2018-10-21T22:09:07.990Z,4.67
2018-10-21T22:11:35.322Z,4.67
2018-10-21T22:14:02.660Z,4.33
2018-10-21T22:16:30.042Z,4.50
2018-10-21T22:18:57.354Z,4.23
2018-10-21T22:21:24.710Z,4.90
2018-10-21T22:23:52.037Z,4.80
2018-10-21T22:26:19.416Z,4.10
2018-10-21T22:28:46.828Z,5.07
2018-10-21T22:31:14.265Z,4.73
2018-10-21T22:33:41.662Z,5.37
2018-10-21T22:36:09.108Z,4.37
2018-10-21T22:38:36.388Z,4.87
2018-10-21T22:41:03.741Z,4.40
2018-10-21T22:43:32.069Z,4.50
2018-10-21T22:46:00.009Z,4.67
2018-10-21T22:48:27.298Z,4.90
2018-10-21T22:50:54.591Z,4.10
2018-10-21T22:53:22.154Z,4.73
2018-10-21T22:55:49.594Z,4.80
2018-10-21T22:58:17.132Z,4.77
2018-10-21T23:00:44.419Z,4.17
2018-10-21T23:03:11.851Z,4.10
2018-10-21T23:05:39.173Z,4.13
2018-10-21T23:08:06.508Z,4.40
2018-10-21T23:10:33.797Z,4.97
2018-10-21T23:13:01.144Z,4.73
2018-10-21T23:15:28.522Z,4.57
2018-10-21T23:17:55.792Z,4.10
2018-10-21T23:20:23.279Z,4.30
2018-10-21T23:22:50.605Z,5.27
2018-10-21T23:25:17.936Z,5.03
2018-10-21T23:27:45.303Z,5.17
2018-10-21T23:30:12.703Z,6.50
2018-10-21T23:32:39.958Z,5.20
2018-10-21T23:35:07.372Z,5.40
2018-10-21T23:37:34.947Z,4.40
2018-10-21T23:40:02.316Z,4.87
2018-10-21T23:42:29.659Z,4.87
2018-10-21T23:44:57.107Z,4.30
2018-10-21T23:47:24.459Z,4.60
2018-10-21T23:49:51.818Z,4.40
2018-10-21T23:52:19.301Z,5.60
2018-10-21T23:54:46.700Z,5.27
2018-10-21T23:57:14.029Z,4.80
2018-10-21T23:59:41.353Z,5.40
